首页
METAR-TAF:

METAR-TAF

机场 :

干尼亞揚尼斯·達斯卡洛伊安尼斯國際機場

干尼亞, 克里特岛, 希腊

纬度: 35-29N, 经度: 024-07E, 海拔: 146米

当前天气观测

该预报发布于22分钟前的01:20 UTC
静风
温度 18°C
湿度 88%
气压 1016 hPa
能见度10公里或以上
散云层高于3000英尺

METAR: LGSA 200120Z 00000KT 9999 SCT030 18/16 Q1016

时间: 04:42 (01:42 UTC)

预报

该预报发布于2小时和42分钟前的23:00 UTC
预报有效从20日的 00点(UTC)到 20日的 24点(UTC)
风速5节,风向多变
能见度10公里或以上
少量云层高于2000英尺
散云层高于3000英尺
短暂存在
从 20日的 00点(UTC)到 20日的 09点(UTC)
散云层高于2000英尺
多云层高于3000英尺
成为
从 20日的 03点(UTC)到 20日的 05点(UTC)
风速10节,风向
成为
从 20日的 16点(UTC)到 20日的 18点(UTC)
风速5节,风向多变

TAF: LGSA 192300Z 2000/2024 VRB05KT 9999 FEW020 SCT030 TEMPO 2000/2009 SCT020 BKN030 BECMG 2003/2005 35010KT BECMG 2016/2018 VRB05KT

超过4000个机场的气象观测和天气预报(METAR&TAF报告)。

可查询的气象台以黄色和红色小点在地图上表示。

将鼠标移到小点上方,可查看气象台名称。

然后点击查看天气观测和预报。

如需切换地图:点击带黑十字的绿色按钮放大地图;点击带横线的绿色按钮缩小地图;或者点击绿色箭头查看邻近地区的地图。


METAR-TAF: